Airport View

Enter AWOS ICAO identifier for current METAR.

ex. KFNL

KLQK 280155Z AUTO 00000KT 10SM OVC017 20/20 A2996 RMK AO2 P0008 T01950195

28 Sep 2020 02:01

Frequency: 120.0

Phone: 864-843-5801

Other Area AWOS: KCEU - KGYH - KGMU - KAND

TAF KGMU 272342Z 2800/2824 18005KT P6SM VCSH SCT015 BKN025 FM280400 20004KT 5SM BR VCSH BKN007 TEMPO 2807/2811 2SM -SHRA BR BKN004 FM281600 19007KT P6SM VCSH SCT015 BKN025 PROB30 2817/2823 4SM TSRA BR OVC015CB